sensor_id;sensor_type;location;lat;lon;timestamp;P1;durP1;ratioP1;P2;durP2;ratioP2
1054;SDS011;516;51.482;7.120;2022-12-16T00:01:38;62.73;;;32.93;;
1054;SDS011;516;51.482;7.120;2022-12-16T00:07:27;58.77;;;34.77;;
1054;SDS011;516;51.482;7.120;2022-12-16T00:13:14;57.33;;;31.73;;
1054;SDS011;516;51.482;7.120;2022-12-16T00:19:02;70.87;;;36.27;;
1054;SDS011;516;51.482;7.120;2022-12-16T00:24:50;59.47;;;34.50;;
1054;SDS011;516;51.482;7.120;2022-12-16T00:30:38;52.80;;;33.57;;
1054;SDS011;516;51.482;7.120;2022-12-16T00:39:48;60.97;;;32.77;;
1054;SDS011;516;51.482;7.120;2022-12-16T00:45:35;55.47;;;31.37;;
1054;SDS011;516;51.482;7.120;2022-12-16T00:51:24;56.43;;;32.10;;
1054;SDS011;516;51.482;7.120;2022-12-16T00:57:12;56.23;;;34.70;;
1054;SDS011;516;51.482;7.120;2022-12-16T01:03:00;45.20;;;31.80;;
1054;SDS011;516;51.482;7.120;2022-12-16T01:08:48;54.67;;;31.70;;
1054;SDS011;516;51.482;7.120;2022-12-16T01:14:36;59.67;;;36.40;;
1054;SDS011;516;51.482;7.120;2022-12-16T01:20:23;69.07;;;35.43;;
1054;SDS011;516;51.482;7.120;2022-12-16T01:26:13;65.00;;;30.60;;
1054;SDS011;516;51.482;7.120;2022-12-16T01:32:03;69.93;;;36.97;;
1054;SDS011;516;51.482;7.120;2022-12-16T01:37:40;59.27;;;34.20;;
1054;SDS011;516;51.482;7.120;2022-12-16T01:43:29;58.07;;;30.07;;
1054;SDS011;516;51.482;7.120;2022-12-16T01:49:21;65.83;;;31.23;;
1054;SDS011;516;51.482;7.120;2022-12-16T01:55:17;58.03;;;31.50;;
1054;SDS011;516;51.482;7.120;2022-12-16T02:01:27;56.30;;;33.80;;
1054;SDS011;516;51.482;7.120;2022-12-16T02:07:15;51.13;;;30.43;;
1054;SDS011;516;51.482;7.120;2022-12-16T02:13:06;56.80;;;33.40;;
1054;SDS011;516;51.482;7.120;2022-12-16T02:26:07;50.80;;;31.63;;
1054;SDS011;516;51.482;7.120;2022-12-16T02:32:23;53.60;;;32.10;;
1054;SDS011;516;51.482;7.120;2022-12-16T02:42:16;40.73;;;25.83;;
1054;SDS011;516;51.482;7.120;2022-12-16T02:48:31;55.20;;;29.97;;
1054;SDS011;516;51.482;7.120;2022-12-16T02:54:19;50.67;;;30.20;;
1054;SDS011;516;51.482;7.120;2022-12-16T03:00:07;44.70;;;31.50;;
1054;SDS011;516;51.482;7.120;2022-12-16T03:06:00;58.00;;;30.40;;
1054;SDS011;516;51.482;7.120;2022-12-16T03:11:50;47.67;;;28.77;;
1054;SDS011;516;51.482;7.120;2022-12-16T03:17:39;51.90;;;28.80;;
1054;SDS011;516;51.482;7.120;2022-12-16T03:23:47;53.33;;;29.50;;
1054;SDS011;516;51.482;7.120;2022-12-16T03:30:15;42.97;;;27.97;;
1054;SDS011;516;51.482;7.120;2022-12-16T03:36:09;58.53;;;28.07;;
1054;SDS011;516;51.482;7.120;2022-12-16T03:42:02;42.17;;;27.57;;
1054;SDS011;516;51.482;7.120;2022-12-16T03:47:51;39.10;;;27.33;;
1054;SDS011;516;51.482;7.120;2022-12-16T03:53:39;46.17;;;28.17;;
1054;SDS011;516;51.482;7.120;2022-12-16T03:59:26;41.67;;;26.50;;
1054;SDS011;516;51.482;7.120;2022-12-16T04:05:14;58.73;;;29.53;;
1054;SDS011;516;51.482;7.120;2022-12-16T04:11:02;47.10;;;30.20;;
1054;SDS011;516;51.482;7.120;2022-12-16T04:17:08;34.90;;;25.97;;
1054;SDS011;516;51.482;7.120;2022-12-16T04:23:17;37.07;;;26.00;;
1054;SDS011;516;51.482;7.120;2022-12-16T04:29:26;45.00;;;27.70;;
1054;SDS011;516;51.482;7.120;2022-12-16T04:35:14;51.57;;;27.53;;
1054;SDS011;516;51.482;7.120;2022-12-16T04:44:42;40.03;;;27.67;;
1054;SDS011;516;51.482;7.120;2022-12-16T04:50:48;38.53;;;25.90;;
1054;SDS011;516;51.482;7.120;2022-12-16T04:56:55;35.87;;;22.70;;
1054;SDS011;516;51.482;7.120;2022-12-16T05:03:01;62.63;;;32.40;;
1054;SDS011;516;51.482;7.120;2022-12-16T05:09:07;49.33;;;26.17;;
1054;SDS011;516;51.482;7.120;2022-12-16T05:15:14;43.07;;;24.87;;
1054;SDS011;516;51.482;7.120;2022-12-16T05:21:20;39.87;;;23.33;;
1054;SDS011;516;51.482;7.120;2022-12-16T05:27:26;46.33;;;24.47;;
1054;SDS011;516;51.482;7.120;2022-12-16T05:33:32;35.93;;;25.30;;
1054;SDS011;516;51.482;7.120;2022-12-16T05:39:39;39.30;;;25.80;;
1054;SDS011;516;51.482;7.120;2022-12-16T05:45:45;47.03;;;28.53;;
1054;SDS011;516;51.482;7.120;2022-12-16T05:51:52;41.67;;;27.13;;
1054;SDS011;516;51.482;7.120;2022-12-16T05:57:57;43.50;;;27.10;;
1054;SDS011;516;51.482;7.120;2022-12-16T06:04:04;44.00;;;25.50;;
1054;SDS011;516;51.482;7.120;2022-12-16T06:10:10;41.17;;;27.37;;
1054;SDS011;516;51.482;7.120;2022-12-16T06:16:16;44.83;;;26.40;;
1054;SDS011;516;51.482;7.120;2022-12-16T06:22:22;53.77;;;29.70;;
1054;SDS011;516;51.482;7.120;2022-12-16T06:28:29;54.13;;;29.17;;
1054;SDS011;516;51.482;7.120;2022-12-16T06:34:35;52.50;;;30.50;;
1054;SDS011;516;51.482;7.120;2022-12-16T06:44:25;47.47;;;26.43;;
1054;SDS011;516;51.482;7.120;2022-12-16T06:47:09;46.93;;;29.20;;
1054;SDS011;516;51.482;7.120;2022-12-16T06:49:53;57.57;;;31.80;;
1054;SDS011;516;51.482;7.120;2022-12-16T06:55:59;51.30;;;28.33;;
1054;SDS011;516;51.482;7.120;2022-12-16T07:02:07;44.27;;;24.27;;
1054;SDS011;516;51.482;7.120;2022-12-16T07:08:17;53.17;;;30.27;;
1054;SDS011;516;51.482;7.120;2022-12-16T07:14:23;42.27;;;28.90;;
1054;SDS011;516;51.482;7.120;2022-12-16T07:20:29;43.87;;;28.27;;
1054;SDS011;516;51.482;7.120;2022-12-16T07:26:35;57.43;;;28.20;;
1054;SDS011;516;51.482;7.120;2022-12-16T07:32:41;39.23;;;26.30;;
1054;SDS011;516;51.482;7.120;2022-12-16T07:38:48;40.17;;;25.77;;
1054;SDS011;516;51.482;7.120;2022-12-16T07:44:55;53.53;;;31.50;;
1054;SDS011;516;51.482;7.120;2022-12-16T07:51:01;51.93;;;30.03;;
1054;SDS011;516;51.482;7.120;2022-12-16T07:57:07;50.87;;;28.10;;
1054;SDS011;516;51.482;7.120;2022-12-16T08:03:14;46.67;;;29.13;;
1054;SDS011;516;51.482;7.120;2022-12-16T08:09:20;51.80;;;30.57;;
1054;SDS011;516;51.482;7.120;2022-12-16T08:15:26;53.80;;;30.37;;
1054;SDS011;516;51.482;7.120;2022-12-16T08:21:32;46.10;;;27.23;;
1054;SDS011;516;51.482;7.120;2022-12-16T08:27:38;53.17;;;28.67;;
1054;SDS011;516;51.482;7.120;2022-12-16T08:30:22;54.83;;;29.50;;
1054;SDS011;516;51.482;7.120;2022-12-16T08:33:07;48.80;;;30.20;;
1054;SDS011;516;51.482;7.120;2022-12-16T08:39:13;50.63;;;30.23;;
1054;SDS011;516;51.482;7.120;2022-12-16T08:45:19;53.23;;;29.63;;
1054;SDS011;516;51.482;7.120;2022-12-16T08:51:26;53.40;;;31.00;;
1054;SDS011;516;51.482;7.120;2022-12-16T08:57:33;60.77;;;35.37;;
1054;SDS011;516;51.482;7.120;2022-12-16T09:03:39;64.10;;;37.17;;
1054;SDS011;516;51.482;7.120;2022-12-16T09:09:45;56.33;;;36.80;;
1054;SDS011;516;51.482;7.120;2022-12-16T09:15:51;58.70;;;37.07;;
1054;SDS011;516;51.482;7.120;2022-12-16T09:21:58;55.30;;;35.40;;
1054;SDS011;516;51.482;7.120;2022-12-16T09:28:04;66.33;;;35.17;;
1054;SDS011;516;51.482;7.120;2022-12-16T09:34:10;55.97;;;34.90;;
1054;SDS011;516;51.482;7.120;2022-12-16T09:50:29;49.07;;;37.10;;
1054;SDS011;516;51.482;7.120;2022-12-16T09:56:36;41.37;;;30.00;;
1054;SDS011;516;51.482;7.120;2022-12-16T10:02:42;35.20;;;29.37;;
1054;SDS011;516;51.482;7.120;2022-12-16T10:08:58;36.33;;;29.87;;
1054;SDS011;516;51.482;7.120;2022-12-16T10:15:37;35.03;;;29.60;;
1054;SDS011;516;51.482;7.120;2022-12-16T10:34:53;37.43;;;33.47;;
1054;SDS011;516;51.482;7.120;2022-12-16T10:44:36;33.80;;;30.30;;
1054;SDS011;516;51.482;7.120;2022-12-16T10:51:04;34.00;;;30.43;;
1054;SDS011;516;51.482;7.120;2022-12-16T11:03:47;35.37;;;31.77;;
1054;SDS011;516;51.482;7.120;2022-12-16T11:09:53;36.13;;;32.37;;
1054;SDS011;516;51.482;7.120;2022-12-16T11:22:19;40.30;;;35.97;;
1054;SDS011;516;51.482;7.120;2022-12-16T11:28:26;39.53;;;33.57;;
1054;SDS011;516;51.482;7.120;2022-12-16T11:34:36;38.07;;;33.97;;
1054;SDS011;516;51.482;7.120;2022-12-16T11:51:02;45.13;;;33.00;;
1054;SDS011;516;51.482;7.120;2022-12-16T12:00:17;40.50;;;35.23;;
1054;SDS011;516;51.482;7.120;2022-12-16T12:23:01;38.03;;;29.40;;
1054;SDS011;516;51.482;7.120;2022-12-16T12:35:52;46.50;;;32.30;;
1054;SDS011;516;51.482;7.120;2022-12-16T12:45:52;45.17;;;34.67;;
1054;SDS011;516;51.482;7.120;2022-12-16T13:02:23;39.83;;;32.50;;
1054;SDS011;516;51.482;7.120;2022-12-16T13:08:40;45.60;;;33.77;;
1054;SDS011;516;51.482;7.120;2022-12-16T13:18:11;47.07;;;35.13;;
1054;SDS011;516;51.482;7.120;2022-12-16T13:24:37;45.97;;;34.37;;
1054;SDS011;516;51.482;7.120;2022-12-16T13:30:56;39.83;;;33.40;;
1054;SDS011;516;51.482;7.120;2022-12-16T13:37:22;41.10;;;32.00;;
1054;SDS011;516;51.482;7.120;2022-12-16T13:40:22;45.27;;;32.73;;
1054;SDS011;516;51.482;7.120;2022-12-16T13:53:27;44.30;;;34.93;;
1054;SDS011;516;51.482;7.120;2022-12-16T13:59:35;42.70;;;36.90;;
1054;SDS011;516;51.482;7.120;2022-12-16T14:05:44;48.57;;;35.77;;
1054;SDS011;516;51.482;7.120;2022-12-16T14:11:58;46.63;;;36.43;;
1054;SDS011;516;51.482;7.120;2022-12-16T14:18:22;51.50;;;38.83;;
1054;SDS011;516;51.482;7.120;2022-12-16T14:24:54;55.40;;;36.80;;
1054;SDS011;516;51.482;7.120;2022-12-16T14:31:14;53.13;;;36.03;;
1054;SDS011;516;51.482;7.120;2022-12-16T14:37:39;65.37;;;38.37;;
1054;SDS011;516;51.482;7.120;2022-12-16T14:40:24;48.33;;;36.73;;
1054;SDS011;516;51.482;7.120;2022-12-16T14:49:22;57.50;;;38.40;;
1054;SDS011;516;51.482;7.120;2022-12-16T14:55:32;57.90;;;39.10;;
1054;SDS011;516;51.482;7.120;2022-12-16T15:01:39;58.47;;;36.10;;
1054;SDS011;516;51.482;7.120;2022-12-16T15:07:45;59.63;;;39.03;;
1054;SDS011;516;51.482;7.120;2022-12-16T15:13:53;63.93;;;38.47;;
1054;SDS011;516;51.482;7.120;2022-12-16T15:20:05;67.80;;;43.73;;
1054;SDS011;516;51.482;7.120;2022-12-16T15:26:38;101.83;;;51.63;;
1054;SDS011;516;51.482;7.120;2022-12-16T15:32:51;125.20;;;54.17;;
1054;SDS011;516;51.482;7.120;2022-12-16T15:38:57;121.00;;;57.03;;
1054;SDS011;516;51.482;7.120;2022-12-16T15:45:04;136.53;;;59.57;;
1054;SDS011;516;51.482;7.120;2022-12-16T15:57:53;142.97;;;66.37;;
1054;SDS011;516;51.482;7.120;2022-12-16T16:04:01;171.10;;;65.30;;
1054;SDS011;516;51.482;7.120;2022-12-16T16:16:25;155.53;;;65.53;;
1054;SDS011;516;51.482;7.120;2022-12-16T16:22:31;172.50;;;72.37;;
1054;SDS011;516;51.482;7.120;2022-12-16T16:28:37;174.47;;;70.73;;
1054;SDS011;516;51.482;7.120;2022-12-16T16:34:44;187.13;;;73.20;;
1054;SDS011;516;51.482;7.120;2022-12-16T16:47:35;255.00;;;79.37;;
1054;SDS011;516;51.482;7.120;2022-12-16T16:50:20;189.53;;;76.03;;
1054;SDS011;516;51.482;7.120;2022-12-16T16:56:27;253.90;;;88.03;;
1054;SDS011;516;51.482;7.120;2022-12-16T17:02:35;258.03;;;75.40;;
1054;SDS011;516;51.482;7.120;2022-12-16T17:08:44;241.00;;;80.07;;
1054;SDS011;516;51.482;7.120;2022-12-16T17:14:50;276.00;;;84.80;;
1054;SDS011;516;51.482;7.120;2022-12-16T17:20:57;398.27;;;93.10;;
1054;SDS011;516;51.482;7.120;2022-12-16T17:27:16;180.33;;;59.73;;
1054;SDS011;516;51.482;7.120;2022-12-16T17:33:25;145.13;;;57.90;;
1054;SDS011;516;51.482;7.120;2022-12-16T17:39:32;170.27;;;60.47;;
1054;SDS011;516;51.482;7.120;2022-12-16T17:45:39;226.47;;;68.03;;
1054;SDS011;516;51.482;7.120;2022-12-16T17:51:45;166.63;;;61.33;;
1054;SDS011;516;51.482;7.120;2022-12-16T17:57:51;160.40;;;60.60;;
1054;SDS011;516;51.482;7.120;2022-12-16T18:03:58;194.03;;;66.53;;
1054;SDS011;516;51.482;7.120;2022-12-16T18:10:05;141.17;;;54.00;;
1054;SDS011;516;51.482;7.120;2022-12-16T18:16:12;209.97;;;73.10;;
1054;SDS011;516;51.482;7.120;2022-12-16T18:22:22;149.73;;;55.80;;
1054;SDS011;516;51.482;7.120;2022-12-16T18:28:28;176.67;;;63.00;;
1054;SDS011;516;51.482;7.120;2022-12-16T18:34:35;236.93;;;66.07;;
1054;SDS011;516;51.482;7.120;2022-12-16T18:50:52;198.63;;;69.00;;
1054;SDS011;516;51.482;7.120;2022-12-16T18:57:02;138.77;;;56.73;;
1054;SDS011;516;51.482;7.120;2022-12-16T19:03:09;169.53;;;58.37;;
1054;SDS011;516;51.482;7.120;2022-12-16T19:09:15;170.37;;;60.17;;
1054;SDS011;516;51.482;7.120;2022-12-16T19:15:21;199.60;;;65.27;;
1054;SDS011;516;51.482;7.120;2022-12-16T19:21:27;156.87;;;56.27;;
1054;SDS011;516;51.482;7.120;2022-12-16T19:27:35;187.73;;;62.00;;
1054;SDS011;516;51.482;7.120;2022-12-16T19:33:42;115.87;;;53.70;;
1054;SDS011;516;51.482;7.120;2022-12-16T19:39:48;138.47;;;56.93;;
1054;SDS011;516;51.482;7.120;2022-12-16T19:45:55;148.87;;;60.27;;
1054;SDS011;516;51.482;7.120;2022-12-16T19:55:10;140.60;;;48.93;;
1054;SDS011;516;51.482;7.120;2022-12-16T20:01:17;137.90;;;54.47;;
1054;SDS011;516;51.482;7.120;2022-12-16T20:07:23;121.00;;;56.37;;
1054;SDS011;516;51.482;7.120;2022-12-16T20:13:30;130.63;;;49.60;;
1054;SDS011;516;51.482;7.120;2022-12-16T20:19:36;116.40;;;53.23;;
1054;SDS011;516;51.482;7.120;2022-12-16T20:25:42;95.03;;;41.97;;
1054;SDS011;516;51.482;7.120;2022-12-16T20:31:49;121.77;;;43.07;;
1054;SDS011;516;51.482;7.120;2022-12-16T20:37:55;124.97;;;47.07;;
1054;SDS011;516;51.482;7.120;2022-12-16T20:44:02;88.93;;;48.30;;
1054;SDS011;516;51.482;7.120;2022-12-16T20:50:08;105.50;;;43.60;;
1054;SDS011;516;51.482;7.120;2022-12-16T20:56:15;112.53;;;51.30;;
1054;SDS011;516;51.482;7.120;2022-12-16T21:02:22;112.57;;;50.23;;
1054;SDS011;516;51.482;7.120;2022-12-16T21:08:28;94.03;;;41.13;;
1054;SDS011;516;51.482;7.120;2022-12-16T21:14:35;121.13;;;41.90;;
1054;SDS011;516;51.482;7.120;2022-12-16T21:20:41;102.40;;;45.10;;
1054;SDS011;516;51.482;7.120;2022-12-16T21:26:47;101.47;;;47.03;;
1054;SDS011;516;51.482;7.120;2022-12-16T21:32:53;114.17;;;45.67;;
1054;SDS011;516;51.482;7.120;2022-12-16T21:38:59;77.10;;;43.10;;
1054;SDS011;516;51.482;7.120;2022-12-16T21:55:12;105.63;;;43.47;;
1054;SDS011;516;51.482;7.120;2022-12-16T22:01:18;102.97;;;41.10;;
1054;SDS011;516;51.482;7.120;2022-12-16T22:07:26;96.03;;;44.00;;
1054;SDS011;516;51.482;7.120;2022-12-16T22:13:32;131.30;;;45.80;;
1054;SDS011;516;51.482;7.120;2022-12-16T22:19:40;147.57;;;56.50;;
1054;SDS011;516;51.482;7.120;2022-12-16T22:25:46;92.97;;;42.63;;
1054;SDS011;516;51.482;7.120;2022-12-16T22:31:53;91.03;;;40.57;;
1054;SDS011;516;51.482;7.120;2022-12-16T22:37:59;102.23;;;40.53;;
1054;SDS011;516;51.482;7.120;2022-12-16T22:44:06;117.23;;;44.47;;
1054;SDS011;516;51.482;7.120;2022-12-16T22:50:13;102.57;;;44.63;;
1054;SDS011;516;51.482;7.120;2022-12-16T22:56:19;77.70;;;30.57;;
1054;SDS011;516;51.482;7.120;2022-12-16T23:02:26;86.30;;;37.87;;
1054;SDS011;516;51.482;7.120;2022-12-16T23:08:33;86.73;;;37.67;;
1054;SDS011;516;51.482;7.120;2022-12-16T23:14:39;125.10;;;42.97;;
1054;SDS011;516;51.482;7.120;2022-12-16T23:20:46;101.40;;;41.47;;
1054;SDS011;516;51.482;7.120;2022-12-16T23:26:54;81.20;;;33.20;;
1054;SDS011;516;51.482;7.120;2022-12-16T23:33:01;88.87;;;37.07;;
1054;SDS011;516;51.482;7.120;2022-12-16T23:39:07;98.47;;;38.87;;
1054;SDS011;516;51.482;7.120;2022-12-16T23:55:17;85.03;;;36.00;;
